sensor_id;sensor_type;location;lat;lon;timestamp;temperature;humidity
71297;SHT31;59082;50.658;4.608;2022-11-24T06:46:07;5.87;99.99
71297;SHT31;59082;50.658;4.608;2022-11-24T06:48:33;5.84;99.99
71297;SHT31;59082;50.658;4.608;2022-11-24T06:50:59;5.88;99.99
71297;SHT31;59082;50.658;4.608;2022-11-24T06:53:25;5.92;99.99
71297;SHT31;59082;50.658;4.608;2022-11-24T06:55:52;5.90;99.99
71297;SHT31;59082;50.658;4.608;2022-11-24T06:58:17;5.95;99.99
71297;SHT31;59082;50.658;4.608;2022-11-24T07:00:43;5.88;99.99
71297;SHT31;59082;50.658;4.608;2022-11-24T07:03:14;5.79;99.99
71297;SHT31;59082;50.658;4.608;2022-11-24T07:05:40;5.85;99.99
71297;SHT31;59082;50.658;4.608;2022-11-24T07:08:05;5.75;99.99
71297;SHT31;59082;50.658;4.608;2022-11-24T07:10:32;5.74;99.99
71297;SHT31;59082;50.658;4.608;2022-11-24T07:12:58;5.73;99.99
71297;SHT31;59082;50.658;4.608;2022-11-24T07:15:23;5.70;99.99
71297;SHT31;59082;50.658;4.608;2022-11-24T07:17:49;5.70;99.99
71297;SHT31;59082;50.658;4.608;2022-11-24T15:15:58;9.04;99.99
71297;SHT31;59082;50.658;4.608;2022-11-24T15:21:02;8.91;99.99
71297;SHT31;59082;50.658;4.608;2022-11-24T15:23:29;8.88;99.99
71297;SHT31;59082;50.658;4.608;2022-11-24T15:25:56;8.84;99.99
71297;SHT31;59082;50.658;4.608;2022-11-24T15:28:23;8.77;99.99
71297;SHT31;59082;50.658;4.608;2022-11-24T15:30:53;8.81;99.99
71297;SHT31;59082;50.658;4.608;2022-11-24T15:33:22;8.76;99.99
71297;SHT31;59082;50.658;4.608;2022-11-24T15:35:48;8.64;99.99
71297;SHT31;59082;50.658;4.608;2022-11-24T15:38:14;8.56;99.99
71297;SHT31;59082;50.658;4.608;2022-11-24T15:40:42;8.52;99.99
71297;SHT31;59082;50.658;4.608;2022-11-24T15:45:52;8.39;99.99
71297;SHT31;59082;50.658;4.608;2022-11-24T15:48:17;8.36;99.99
71297;SHT31;59082;50.658;4.608;2022-11-24T15:50:43;8.31;99.99
71297;SHT31;59082;50.658;4.608;2022-11-24T15:53:23;8.26;99.99
71297;SHT31;59082;50.658;4.608;2022-11-24T15:55:50;8.24;99.99
71297;SHT31;59082;50.658;4.608;2022-11-24T15:58:17;8.16;99.99
71297;SHT31;59082;50.658;4.608;2022-11-24T16:00:43;8.06;99.99
71297;SHT31;59082;50.658;4.608;2022-11-24T16:03:08;8.01;99.99
71297;SHT31;59082;50.658;4.608;2022-11-24T16:05:36;7.95;99.99
71297;SHT31;59082;50.658;4.608;2022-11-24T16:08:09;7.88;99.99
71297;SHT31;59082;50.658;4.608;2022-11-24T16:10:36;7.84;99.99
71297;SHT31;59082;50.658;4.608;2022-11-24T16:13:02;7.80;99.99
71297;SHT31;59082;50.658;4.608;2022-11-24T16:15:27;7.78;99.99
71297;SHT31;59082;50.658;4.608;2022-11-24T16:17:53;7.76;99.99
71297;SHT31;59082;50.658;4.608;2022-11-24T16:20:18;7.71;99.99
71297;SHT31;59082;50.658;4.608;2022-11-24T16:22:44;7.70;99.99
71297;SHT31;59082;50.658;4.608;2022-11-24T16:25:10;7.67;99.99
71297;SHT31;59082;50.658;4.608;2022-11-24T16:27:36;7.62;99.99
71297;SHT31;59082;50.658;4.608;2022-11-24T16:30:04;7.50;99.99
71297;SHT31;59082;50.658;4.608;2022-11-24T16:32:29;7.45;99.99
71297;SHT31;59082;50.658;4.608;2022-11-24T16:34:55;7.39;99.99
71297;SHT31;59082;50.658;4.608;2022-11-24T16:37:21;7.33;99.99
71297;SHT31;59082;50.658;4.608;2022-11-24T16:39:47;7.36;99.99
71297;SHT31;59082;50.658;4.608;2022-11-24T16:42:13;7.40;99.99
71297;SHT31;59082;50.658;4.608;2022-11-24T16:44:38;7.40;99.99
71297;SHT31;59082;50.658;4.608;2022-11-24T16:47:04;7.36;99.99
71297;SHT31;59082;50.658;4.608;2022-11-24T16:49:30;7.43;99.99
71297;SHT31;59082;50.658;4.608;2022-11-24T16:51:55;7.47;99.99
71297;SHT31;59082;50.658;4.608;2022-11-24T16:54:21;7.42;99.99
71297;SHT31;59082;50.658;4.608;2022-11-24T16:56:46;7.30;99.99
71297;SHT31;59082;50.658;4.608;2022-11-24T16:59:12;7.32;99.99
71297;SHT31;59082;50.658;4.608;2022-11-24T17:01:37;7.33;99.99
71297;SHT31;59082;50.658;4.608;2022-11-24T17:04:06;7.30;99.99
71297;SHT31;59082;50.658;4.608;2022-11-24T17:06:32;7.23;99.99
71297;SHT31;59082;50.658;4.608;2022-11-24T17:08:58;7.25;99.99
71297;SHT31;59082;50.658;4.608;2022-11-24T17:11:26;7.23;99.99
71297;SHT31;59082;50.658;4.608;2022-11-24T17:13:52;7.23;99.99
71297;SHT31;59082;50.658;4.608;2022-11-24T17:16:19;7.25;99.99
71297;SHT31;59082;50.658;4.608;2022-11-24T17:18:45;7.20;99.99
71297;SHT31;59082;50.658;4.608;2022-11-24T17:21:14;7.20;99.99
71297;SHT31;59082;50.658;4.608;2022-11-24T17:23:40;7.22;99.99
71297;SHT31;59082;50.658;4.608;2022-11-24T17:26:09;7.23;99.99
71297;SHT31;59082;50.658;4.608;2022-11-24T17:28:36;7.12;99.99
71297;SHT31;59082;50.658;4.608;2022-11-24T17:31:16;7.08;99.99
71297;SHT31;59082;50.658;4.608;2022-11-24T17:33:42;7.16;99.99
71297;SHT31;59082;50.658;4.608;2022-11-24T17:36:08;7.15;99.99
71297;SHT31;59082;50.658;4.608;2022-11-24T17:38:34;7.14;99.99
71297;SHT31;59082;50.658;4.608;2022-11-24T17:41:00;7.15;99.99
71297;SHT31;59082;50.658;4.608;2022-11-24T17:43:26;7.19;99.99
71297;SHT31;59082;50.658;4.608;2022-11-24T17:45:56;7.15;99.99
71297;SHT31;59082;50.658;4.608;2022-11-24T17:48:22;7.11;99.99
71297;SHT31;59082;50.658;4.608;2022-11-24T17:50:48;7.12;99.99
71297;SHT31;59082;50.658;4.608;2022-11-24T17:53:22;7.08;99.99
71297;SHT31;59082;50.658;4.608;2022-11-24T17:55:47;7.02;99.99
71297;SHT31;59082;50.658;4.608;2022-11-24T17:58:13;6.99;99.99
71297;SHT31;59082;50.658;4.608;2022-11-24T18:00:38;7.01;99.99
71297;SHT31;59082;50.658;4.608;2022-11-24T18:03:04;6.97;99.99
71297;SHT31;59082;50.658;4.608;2022-11-24T18:05:29;6.95;99.99
71297;SHT31;59082;50.658;4.608;2022-11-24T18:07:55;6.98;99.99
71297;SHT31;59082;50.658;4.608;2022-11-24T18:10:20;6.94;99.99
71297;SHT31;59082;50.658;4.608;2022-11-24T18:12:46;6.92;99.99
71297;SHT31;59082;50.658;4.608;2022-11-24T18:15:12;6.94;99.99
71297;SHT31;59082;50.658;4.608;2022-11-24T18:17:37;6.99;99.99
71297;SHT31;59082;50.658;4.608;2022-11-24T18:20:04;6.90;99.99
71297;SHT31;59082;50.658;4.608;2022-11-24T18:22:30;6.91;99.99
71297;SHT31;59082;50.658;4.608;2022-11-24T18:24:55;6.92;99.99
71297;SHT31;59082;50.658;4.608;2022-11-24T18:27:21;6.92;99.99
71297;SHT31;59082;50.658;4.608;2022-11-24T18:29:46;6.98;99.99
71297;SHT31;59082;50.658;4.608;2022-11-24T18:32:12;7.01;99.99
71297;SHT31;59082;50.658;4.608;2022-11-24T18:34:37;7.02;99.99
71297;SHT31;59082;50.658;4.608;2022-11-24T18:37:03;7.01;99.99
71297;SHT31;59082;50.658;4.608;2022-11-24T18:39:29;7.02;99.99
71297;SHT31;59082;50.658;4.608;2022-11-24T18:41:54;6.94;99.99
71297;SHT31;59082;50.658;4.608;2022-11-24T18:44:20;6.90;99.99
71297;SHT31;59082;50.658;4.608;2022-11-24T18:46:47;6.92;99.99
71297;SHT31;59082;50.658;4.608;2022-11-24T18:49:13;6.94;99.99
71297;SHT31;59082;50.658;4.608;2022-11-24T18:51:38;6.94;99.99
71297;SHT31;59082;50.658;4.608;2022-11-24T18:54:04;6.94;99.99
71297;SHT31;59082;50.658;4.608;2022-11-24T18:56:30;6.97;99.99
71297;SHT31;59082;50.658;4.608;2022-11-24T18:58:56;6.99;99.99
71297;SHT31;59082;50.658;4.608;2022-11-24T19:01:26;6.94;99.99
71297;SHT31;59082;50.658;4.608;2022-11-24T19:03:54;6.94;99.99
71297;SHT31;59082;50.658;4.608;2022-11-24T19:06:26;6.91;99.99
71297;SHT31;59082;50.658;4.608;2022-11-24T19:08:56;6.95;99.99
71297;SHT31;59082;50.658;4.608;2022-11-24T19:11:24;6.92;99.99
71297;SHT31;59082;50.658;4.608;2022-11-24T19:13:50;7.04;99.99
71297;SHT31;59082;50.658;4.608;2022-11-24T19:16:17;7.18;99.99
71297;SHT31;59082;50.658;4.608;2022-11-24T19:18:43;7.26;99.99
71297;SHT31;59082;50.658;4.608;2022-11-24T19:21:08;7.43;99.99
71297;SHT31;59082;50.658;4.608;2022-11-24T19:23:34;7.56;99.99
71297;SHT31;59082;50.658;4.608;2022-11-24T19:26:04;7.71;99.99
71297;SHT31;59082;50.658;4.608;2022-11-24T19:28:30;7.84;99.99
71297;SHT31;59082;50.658;4.608;2022-11-24T19:31:00;7.91;99.99
71297;SHT31;59082;50.658;4.608;2022-11-24T19:33:25;8.02;99.99
71297;SHT31;59082;50.658;4.608;2022-11-24T19:36:07;8.09;99.99
71297;SHT31;59082;50.658;4.608;2022-11-24T19:38:33;8.15;99.99
71297;SHT31;59082;50.658;4.608;2022-11-24T19:41:08;8.21;99.99
71297;SHT31;59082;50.658;4.608;2022-11-24T19:43:35;8.31;99.99
71297;SHT31;59082;50.658;4.608;2022-11-24T19:46:02;8.20;99.99
71297;SHT31;59082;50.658;4.608;2022-11-24T19:48:32;8.09;99.99
71297;SHT31;59082;50.658;4.608;2022-11-24T19:50:59;8.02;99.99
71297;SHT31;59082;50.658;4.608;2022-11-24T19:53:25;7.98;99.99
71297;SHT31;59082;50.658;4.608;2022-11-24T19:55:51;7.93;99.99
71297;SHT31;59082;50.658;4.608;2022-11-24T19:58:16;7.97;99.99
71297;SHT31;59082;50.658;4.608;2022-11-24T20:00:42;8.02;99.99
71297;SHT31;59082;50.658;4.608;2022-11-24T20:03:08;7.93;99.99
71297;SHT31;59082;50.658;4.608;2022-11-24T20:05:33;7.95;99.99
71297;SHT31;59082;50.658;4.608;2022-11-24T20:07:59;8.02;99.99
71297;SHT31;59082;50.658;4.608;2022-11-24T20:10:24;7.98;99.99
71297;SHT31;59082;50.658;4.608;2022-11-24T20:12:50;7.98;99.99
71297;SHT31;59082;50.658;4.608;2022-11-24T20:15:15;7.90;99.99
71297;SHT31;59082;50.658;4.608;2022-11-24T20:17:41;7.91;99.99
71297;SHT31;59082;50.658;4.608;2022-11-24T20:20:06;7.97;99.99
71297;SHT31;59082;50.658;4.608;2022-11-24T20:22:32;7.93;99.99
71297;SHT31;59082;50.658;4.608;2022-11-24T20:24:57;7.97;99.99
71297;SHT31;59082;50.658;4.608;2022-11-24T20:27:23;8.06;99.99
71297;SHT31;59082;50.658;4.608;2022-11-24T20:29:48;8.06;99.99
71297;SHT31;59082;50.658;4.608;2022-11-24T20:32:14;7.99;99.99
71297;SHT31;59082;50.658;4.608;2022-11-24T20:34:44;8.05;99.99
71297;SHT31;59082;50.658;4.608;2022-11-24T20:37:09;8.02;99.99
71297;SHT31;59082;50.658;4.608;2022-11-24T20:39:38;8.09;99.99
71297;SHT31;59082;50.658;4.608;2022-11-24T20:42:04;8.31;99.99
71297;SHT31;59082;50.658;4.608;2022-11-24T20:44:30;8.32;99.99
71297;SHT31;59082;50.658;4.608;2022-11-24T20:46:56;8.32;99.99
71297;SHT31;59082;50.658;4.608;2022-11-24T20:49:24;8.39;99.99
71297;SHT31;59082;50.658;4.608;2022-11-24T20:51:50;8.36;99.99
71297;SHT31;59082;50.658;4.608;2022-11-24T20:54:19;8.32;99.99
71297;SHT31;59082;50.658;4.608;2022-11-24T20:56:46;8.33;99.99
71297;SHT31;59082;50.658;4.608;2022-11-24T20:59:14;8.28;99.99
71297;SHT31;59082;50.658;4.608;2022-11-24T21:01:42;8.31;99.99
71297;SHT31;59082;50.658;4.608;2022-11-24T21:04:12;8.29;99.99
71297;SHT31;59082;50.658;4.608;2022-11-24T21:06:38;8.35;99.99
71297;SHT31;59082;50.658;4.608;2022-11-24T21:09:07;8.46;99.99
71297;SHT31;59082;50.658;4.608;2022-11-24T21:11:33;8.49;99.99
71297;SHT31;59082;50.658;4.608;2022-11-24T21:13:59;8.57;99.99
71297;SHT31;59082;50.658;4.608;2022-11-24T21:16:31;8.60;99.99
71297;SHT31;59082;50.658;4.608;2022-11-24T21:18:59;8.69;99.99
71297;SHT31;59082;50.658;4.608;2022-11-24T21:21:27;8.74;99.99
